createdAt,value
2022-09-13T00:01:21.493Z,87.17
2022-09-13T00:03:47.856Z,87.16
2022-09-13T00:06:16.602Z,87.93
2022-09-13T00:08:43.750Z,87.45
2022-09-13T00:11:19.699Z,88.63
2022-09-13T00:13:46.434Z,88.89
2022-09-13T00:16:16.127Z,89.78
2022-09-13T00:18:42.714Z,89.48
2022-09-13T00:21:12.138Z,90.03
2022-09-13T00:23:38.891Z,89.65
2022-09-13T00:26:11.913Z,88.94
2022-09-13T00:28:38.832Z,89.15
2022-09-13T00:31:39.984Z,87.67
2022-09-13T00:34:06.315Z,87.99
2022-09-13T00:36:32.633Z,88.38
2022-09-13T00:39:00.302Z,88.90
2022-09-13T00:41:26.782Z,88.75
2022-09-13T00:43:59.094Z,88.76
2022-09-13T00:46:48.195Z,90.01
2022-09-13T00:49:22.177Z,91.93
2022-09-13T00:51:56.694Z,94.34
2022-09-13T00:54:29.370Z,97.05
2022-09-13T00:57:00.334Z,98.74
2022-09-13T00:59:32.624Z,100.00
2022-09-13T01:02:01.806Z,100.00
2022-09-13T01:04:30.179Z,100.00
2022-09-13T01:07:00.708Z,100.00
2022-09-13T01:09:28.273Z,100.00
2022-09-13T01:12:10.060Z,100.00
2022-09-13T01:14:37.106Z,100.00
2022-09-13T01:17:04.121Z,100.00
2022-09-13T01:19:30.503Z,100.00
2022-09-13T01:22:35.305Z,100.00
2022-09-13T01:25:46.832Z,100.00
2022-09-13T01:28:38.793Z,100.00
2022-09-13T01:31:18.776Z,100.00
2022-09-13T01:34:00.275Z,100.00
2022-09-13T01:36:43.659Z,100.00
2022-09-13T01:39:17.579Z,100.00
2022-09-13T01:42:08.771Z,100.00
2022-09-13T01:44:50.396Z,100.00
2022-09-13T01:47:25.511Z,100.00
2022-09-13T01:50:20.063Z,100.00
2022-09-13T01:52:57.466Z,100.00
2022-09-13T01:55:34.317Z,100.00
2022-09-13T01:58:24.271Z,100.00
2022-09-13T02:01:04.535Z,100.00
2022-09-13T02:03:35.558Z,100.00
2022-09-13T02:06:08.462Z,100.00
2022-09-13T02:08:56.862Z,100.00
2022-09-13T02:11:23.927Z,100.00
2022-09-13T02:13:58.530Z,100.00
2022-09-13T02:16:35.971Z,100.00
2022-09-13T02:19:13.471Z,100.00
2022-09-13T02:21:44.802Z,100.00
2022-09-13T02:24:15.862Z,100.00
2022-09-13T02:26:46.539Z,100.00
2022-09-13T02:29:17.733Z,100.00
2022-09-13T02:31:52.014Z,100.00
2022-09-13T02:34:22.953Z,100.00
2022-09-13T02:36:52.403Z,100.00
2022-09-13T02:39:24.285Z,100.00
2022-09-13T02:42:32.456Z,100.00
2022-09-13T02:44:59.639Z,100.00
2022-09-13T02:47:35.414Z,100.00
2022-09-13T02:50:04.750Z,100.00
2022-09-13T02:52:56.895Z,100.00
2022-09-13T02:55:29.302Z,100.00
2022-09-13T02:58:14.418Z,100.00
2022-09-13T03:00:41.318Z,100.00
2022-09-13T03:03:12.127Z,100.00
2022-09-13T03:05:38.634Z,100.00
2022-09-13T03:08:06.956Z,100.00
2022-09-13T03:10:54.573Z,100.00
2022-09-13T03:13:58.191Z,100.00
2022-09-13T03:16:48.702Z,100.00
2022-09-13T03:19:28.993Z,100.00
2022-09-13T03:22:14.418Z,100.00
2022-09-13T03:25:06.379Z,100.00
2022-09-13T03:28:02.640Z,100.00
2022-09-13T03:30:30.524Z,100.00
2022-09-13T03:33:07.019Z,100.00
2022-09-13T03:35:42.870Z,100.00
2022-09-13T03:38:16.355Z,100.00
2022-09-13T03:40:49.812Z,100.00
2022-09-13T03:43:37.447Z,100.00
2022-09-13T03:46:12.086Z,100.00
2022-09-13T03:48:42.570Z,100.00
2022-09-13T03:51:11.318Z,100.00
2022-09-13T03:53:43.158Z,100.00
2022-09-13T03:56:20.647Z,100.00
2022-09-13T03:58:47.920Z,100.00
2022-09-13T04:01:17.993Z,100.00
2022-09-13T04:03:44.283Z,100.00
2022-09-13T04:06:10.638Z,100.00
2022-09-13T04:08:36.974Z,100.00
2022-09-13T04:11:03.279Z,100.00
2022-09-13T04:13:29.683Z,100.00
2022-09-13T04:16:00.935Z,100.00
2022-09-13T04:18:27.662Z,100.00
2022-09-13T04:20:55.746Z,100.00
2022-09-13T04:23:22.668Z,100.00
2022-09-13T04:25:49.023Z,100.00
2022-09-13T04:28:17.074Z,100.00
2022-09-13T04:30:47.837Z,100.00
2022-09-13T04:33:14.970Z,100.00
2022-09-13T04:35:41.304Z,100.00
2022-09-13T04:38:08.784Z,100.00
2022-09-13T04:40:36.491Z,100.00
2022-09-13T04:43:02.977Z,100.00
2022-09-13T04:45:29.715Z,100.00
2022-09-13T04:47:59.195Z,100.00
2022-09-13T04:50:25.949Z,100.00
2022-09-13T04:52:55.238Z,100.00
2022-09-13T04:55:21.811Z,100.00
2022-09-13T04:57:52.295Z,100.00
2022-09-13T05:00:18.672Z,100.00
2022-09-13T05:02:44.952Z,100.00
2022-09-13T05:05:11.239Z,100.00
2022-09-13T05:07:37.601Z,100.00
2022-09-13T05:10:04.478Z,100.00
2022-09-13T05:12:31.066Z,100.00
2022-09-13T05:14:57.391Z,100.00
2022-09-13T05:17:23.742Z,100.00
2022-09-13T05:19:50.077Z,100.00
2022-09-13T05:22:16.366Z,100.00
2022-09-13T05:24:42.975Z,100.00
2022-09-13T05:27:10.860Z,100.00
2022-09-13T05:29:37.162Z,100.00
2022-09-13T05:32:04.238Z,100.00
2022-09-13T05:34:30.523Z,100.00
2022-09-13T05:36:56.856Z,100.00
2022-09-13T05:39:54.326Z,100.00
2022-09-13T05:42:09.442Z,100.00
2022-09-13T05:44:35.716Z,100.00
2022-09-13T05:47:02.020Z,100.00
2022-09-13T05:49:28.322Z,100.00
2022-09-13T05:51:54.606Z,100.00
2022-09-13T05:54:20.935Z,100.00
2022-09-13T05:56:47.395Z,100.00
2022-09-13T05:59:17.071Z,100.00
2022-09-13T06:01:43.545Z,100.00
2022-09-13T06:04:12.270Z,100.00
2022-09-13T06:06:38.582Z,100.00
2022-09-13T06:09:06.764Z,100.00
2022-09-13T06:11:33.165Z,100.00
2022-09-13T06:13:59.832Z,100.00
2022-09-13T06:16:26.188Z,100.00
2022-09-13T06:18:52.516Z,100.00
2022-09-13T06:21:24.654Z,100.00
2022-09-13T06:23:54.091Z,100.00
2022-09-13T06:26:25.208Z,100.00
2022-09-13T06:28:54.252Z,100.00
2022-09-13T06:31:22.694Z,100.00
2022-09-13T06:33:49.033Z,100.00
2022-09-13T06:36:18.332Z,100.00
2022-09-13T06:38:50.908Z,100.00
2022-09-13T06:41:19.928Z,100.00
2022-09-13T06:43:47.868Z,100.00
2022-09-13T06:46:20.435Z,100.00
2022-09-13T06:48:50.577Z,100.00
2022-09-13T06:51:19.778Z,100.00
2022-09-13T06:53:49.196Z,100.00
2022-09-13T06:56:18.732Z,100.00
2022-09-13T06:58:47.806Z,100.00
2022-09-13T07:01:19.836Z,100.00
2022-09-13T07:03:54.347Z,100.00
2022-09-13T07:06:22.766Z,100.00
2022-09-13T07:08:51.561Z,100.00
2022-09-13T07:11:19.793Z,100.00
2022-09-13T07:13:54.177Z,100.00
2022-09-13T07:16:23.094Z,100.00
2022-09-13T07:18:54.322Z,100.00
2022-09-13T07:21:22.061Z,100.00
2022-09-13T07:23:49.160Z,100.00
2022-09-13T07:26:15.719Z,100.00
2022-09-13T07:28:47.305Z,100.00
2022-09-13T07:31:17.018Z,100.00
2022-09-13T07:33:44.416Z,100.00
2022-09-13T07:36:12.716Z,100.00
2022-09-13T07:38:41.010Z,100.00
2022-09-13T07:41:11.870Z,100.00
2022-09-13T07:43:38.385Z,100.00
2022-09-13T07:46:07.954Z,100.00
2022-09-13T07:48:36.353Z,100.00
2022-09-13T07:51:10.092Z,100.00
2022-09-13T07:53:37.906Z,100.00
2022-09-13T07:56:19.987Z,100.00
2022-09-13T07:58:48.268Z,100.00
2022-09-13T08:01:18.196Z,100.00
2022-09-13T08:03:50.199Z,100.00
2022-09-13T08:06:16.572Z,100.00
2022-09-13T08:08:42.906Z,100.00
2022-09-13T08:11:16.087Z,100.00
2022-09-13T08:13:42.419Z,100.00
2022-09-13T08:16:08.797Z,100.00
2022-09-13T08:18:35.179Z,100.00
2022-09-13T08:21:01.896Z,100.00
2022-09-13T08:23:28.353Z,100.00
2022-09-13T08:25:54.873Z,100.00
2022-09-13T08:28:26.891Z,100.00
2022-09-13T08:30:54.184Z,100.00
2022-09-13T08:33:20.623Z,100.00
2022-09-13T08:35:52.459Z,100.00
2022-09-13T08:38:19.894Z,100.00
2022-09-13T08:40:51.430Z,100.00
2022-09-13T08:43:40.263Z,100.00
2022-09-13T08:46:27.093Z,100.00
2022-09-13T08:48:58.454Z,100.00
2022-09-13T08:51:43.617Z,100.00
2022-09-13T08:54:14.910Z,100.00
2022-09-13T08:56:46.356Z,100.00
2022-09-13T08:59:46.210Z,100.00
2022-09-13T09:02:40.245Z,100.00
2022-09-13T09:05:21.678Z,98.12
2022-09-13T09:08:02.488Z,95.30
2022-09-13T09:10:44.417Z,93.46
2022-09-13T09:13:24.615Z,84.53
2022-09-13T09:15:54.842Z,83.49
2022-09-13T09:18:28.630Z,83.44
2022-09-13T09:20:57.060Z,83.77
2022-09-13T09:23:28.658Z,82.40
2022-09-13T09:26:13.326Z,81.31
2022-09-13T09:28:39.606Z,79.85
2022-09-13T09:31:20.411Z,78.16
2022-09-13T09:33:55.730Z,74.89
2022-09-13T09:36:53.804Z,73.77
2022-09-13T09:39:20.298Z,72.23
2022-09-13T09:41:46.697Z,73.08
2022-09-13T09:44:20.408Z,72.04
2022-09-13T09:47:00.906Z,73.64
2022-09-13T09:49:57.811Z,74.71
2022-09-13T09:52:40.010Z,73.01
2022-09-13T09:55:29.116Z,73.09
2022-09-13T09:58:08.096Z,74.30
2022-09-13T10:00:50.755Z,72.21
2022-09-13T10:03:29.023Z,74.35
2022-09-13T10:06:14.994Z,70.90
2022-09-13T10:08:43.918Z,71.35
2022-09-13T10:11:10.627Z,69.04
2022-09-13T10:13:38.148Z,69.83
2022-09-13T10:16:07.540Z,68.62
2022-09-13T10:18:45.093Z,66.04
2022-09-13T10:21:17.645Z,67.43
2022-09-13T10:23:46.890Z,64.37
2022-09-13T10:26:17.656Z,65.64
2022-09-13T10:29:10.159Z,67.46
2022-09-13T10:31:42.793Z,63.48
2022-09-13T10:34:22.217Z,63.52
2022-09-13T10:36:59.558Z,61.97
2022-09-13T10:39:27.651Z,64.10
2022-09-13T10:42:07.587Z,64.08
2022-09-13T10:44:45.138Z,63.59
2022-09-13T10:47:19.738Z,63.59
2022-09-13T10:49:48.946Z,62.32
2022-09-13T10:52:44.645Z,63.03
2022-09-13T10:55:20.189Z,61.62
2022-09-13T10:57:47.596Z,61.96
2022-09-13T11:00:20.712Z,63.11
2022-09-13T11:02:53.676Z,63.97
2022-09-13T11:05:38.580Z,64.82
2022-09-13T11:08:26.705Z,64.28
2022-09-13T11:11:22.833Z,63.72
2022-09-13T11:14:16.984Z,63.39
2022-09-13T11:17:00.540Z,62.76
2022-09-13T11:19:40.138Z,62.50
2022-09-13T11:22:16.571Z,65.12
2022-09-13T11:25:01.995Z,63.12
2022-09-13T11:27:34.547Z,65.31
2022-09-13T11:30:21.293Z,66.43
2022-09-13T11:33:17.507Z,64.63
2022-09-13T11:36:02.275Z,63.35
2022-09-13T11:38:43.645Z,59.40
2022-09-13T11:41:30.948Z,59.15
2022-09-13T11:44:17.260Z,57.84
2022-09-13T11:47:01.880Z,58.28
2022-09-13T11:49:48.719Z,60.39
2022-09-13T11:52:52.709Z,58.75
2022-09-13T11:55:40.566Z,60.29
2022-09-13T11:58:29.050Z,58.08
2022-09-13T12:01:01.512Z,59.27
2022-09-13T12:03:50.225Z,59.56
2022-09-13T12:06:23.323Z,58.85
2022-09-13T12:08:54.406Z,60.44
2022-09-13T12:11:31.430Z,61.04
2022-09-13T12:14:02.463Z,61.31
2022-09-13T12:16:36.371Z,62.95
2022-09-13T12:19:16.827Z,63.45
2022-09-13T12:21:45.170Z,62.03
2022-09-13T12:24:32.035Z,63.30
2022-09-13T12:27:10.565Z,63.45
2022-09-13T12:29:50.260Z,61.61
2022-09-13T12:32:18.349Z,60.42
2022-09-13T12:35:08.403Z,60.11
2022-09-13T12:37:59.358Z,59.80
2022-09-13T12:40:31.870Z,58.90
2022-09-13T12:43:32.010Z,57.27
2022-09-13T12:46:24.249Z,56.75
2022-09-13T12:49:13.759Z,57.85
2022-09-13T12:51:53.281Z,57.33
2022-09-13T12:55:06.171Z,55.23
2022-09-13T12:57:45.896Z,56.11
2022-09-13T13:00:29.122Z,55.98
2022-09-13T13:03:12.703Z,57.04
2022-09-13T13:05:46.042Z,57.40
2022-09-13T13:08:21.519Z,56.74
2022-09-13T13:11:03.438Z,55.04
2022-09-13T13:13:42.905Z,56.42
2022-09-13T13:16:34.049Z,57.12
2022-09-13T13:19:03.757Z,56.09
2022-09-13T13:21:38.965Z,58.35
2022-09-13T13:24:17.280Z,56.00
2022-09-13T13:26:54.234Z,58.73
2022-09-13T13:29:23.199Z,57.89
2022-09-13T13:32:03.783Z,59.31
2022-09-13T13:34:38.755Z,59.96
2022-09-13T13:37:31.497Z,61.61
2022-09-13T13:40:22.748Z,64.82
2022-09-13T13:42:49.436Z,63.26
2022-09-13T13:45:18.806Z,64.12
2022-09-13T13:48:09.665Z,64.66
2022-09-13T13:51:11.654Z,64.61
2022-09-13T13:53:39.239Z,64.86
2022-09-13T13:56:22.489Z,63.81
2022-09-13T13:58:58.719Z,65.95
2022-09-13T14:01:30.186Z,66.43
2022-09-13T14:04:38.056Z,68.17
2022-09-13T14:07:30.763Z,68.89
2022-09-13T14:10:12.797Z,69.23
2022-09-13T14:13:16.833Z,68.27
2022-09-13T14:15:59.107Z,67.98
2022-09-13T14:18:47.230Z,66.88
2022-09-13T14:21:25.153Z,67.86
2022-09-13T14:23:51.510Z,66.41
2022-09-13T14:26:17.872Z,66.85
2022-09-13T14:28:44.379Z,65.49
2022-09-13T14:31:20.239Z,65.13
2022-09-13T14:33:46.699Z,65.71
2022-09-13T14:36:22.186Z,65.56
2022-09-13T14:39:01.789Z,65.43
2022-09-13T14:41:37.596Z,66.50
2022-09-13T14:44:26.360Z,67.72
2022-09-13T14:47:17.002Z,66.31
2022-09-13T14:49:52.758Z,67.73
2022-09-13T14:52:39.395Z,66.90
2022-09-13T14:55:14.036Z,64.68
2022-09-13T14:57:46.386Z,66.51
2022-09-13T15:00:22.129Z,65.85
2022-09-13T15:02:52.132Z,65.38
2022-09-13T15:05:22.433Z,66.62
2022-09-13T15:07:49.187Z,67.25
2022-09-13T15:10:15.427Z,67.42
2022-09-13T15:12:58.520Z,66.75
2022-09-13T15:15:30.890Z,67.18
2022-09-13T15:18:15.720Z,65.94
2022-09-13T15:20:55.081Z,67.30
2022-09-13T15:23:39.195Z,66.39
2022-09-13T15:26:11.358Z,65.44
2022-09-13T15:28:50.938Z,65.44
2022-09-13T15:31:22.424Z,65.53
2022-09-13T15:33:49.832Z,64.41
2022-09-13T15:36:28.168Z,64.30
2022-09-13T15:39:09.714Z,64.37
2022-09-13T15:41:38.738Z,64.68
2022-09-13T15:44:07.803Z,65.38
2022-09-13T15:46:55.544Z,65.05
2022-09-13T15:49:25.530Z,65.07
2022-09-13T15:51:59.311Z,65.70
2022-09-13T15:54:40.851Z,65.49
2022-09-13T15:57:10.395Z,66.84
2022-09-13T15:59:36.727Z,67.03
2022-09-13T16:02:18.454Z,67.12
2022-09-13T16:04:44.879Z,67.11
2022-09-13T16:07:11.191Z,68.48
2022-09-13T16:09:38.696Z,68.06
2022-09-13T16:12:05.400Z,67.86
2022-09-13T16:14:31.943Z,67.45
2022-09-13T16:17:02.639Z,67.36
2022-09-13T16:19:28.923Z,68.35
2022-09-13T16:21:55.369Z,67.65
2022-09-13T16:24:21.849Z,66.99
2022-09-13T16:26:48.142Z,68.26
2022-09-13T16:29:14.477Z,68.85
2022-09-13T16:31:40.883Z,67.48
2022-09-13T16:34:07.313Z,67.60
2022-09-13T16:36:34.007Z,67.92
2022-09-13T16:39:00.646Z,67.27
2022-09-13T16:41:26.945Z,67.85
2022-09-13T16:43:56.386Z,68.39
2022-09-13T16:46:31.701Z,68.33
2022-09-13T16:48:58.687Z,68.39
2022-09-13T16:51:26.811Z,68.10
2022-09-13T16:53:53.873Z,68.41
2022-09-13T16:56:23.723Z,69.47
2022-09-13T16:58:51.614Z,69.10
2022-09-13T17:01:20.930Z,67.64
2022-09-13T17:03:48.486Z,68.11
2022-09-13T17:06:20.433Z,67.21
2022-09-13T17:08:55.869Z,67.56
2022-09-13T17:11:26.920Z,68.54
2022-09-13T17:13:54.285Z,68.85
2022-09-13T17:16:29.610Z,69.18
2022-09-13T17:18:57.826Z,69.83
2022-09-13T17:21:25.203Z,69.97
2022-09-13T17:23:51.624Z,69.42
2022-09-13T17:26:18.064Z,70.85
2022-09-13T17:28:44.356Z,70.86
2022-09-13T17:31:10.794Z,71.07
2022-09-13T17:33:37.362Z,71.79
2022-09-13T17:36:06.424Z,72.04
2022-09-13T17:38:33.008Z,72.59
2022-09-13T17:41:04.278Z,72.93
2022-09-13T17:43:31.010Z,74.08
2022-09-13T17:45:58.023Z,74.42
2022-09-13T17:48:24.494Z,75.17
2022-09-13T17:50:50.814Z,75.35
2022-09-13T17:53:17.107Z,75.97
2022-09-13T17:55:47.802Z,76.08
2022-09-13T17:58:14.657Z,76.77
2022-09-13T18:00:41.468Z,77.47
2022-09-13T18:03:07.920Z,77.65
2022-09-13T18:05:34.324Z,77.92
2022-09-13T18:08:00.931Z,77.84
2022-09-13T18:10:49.188Z,77.92
2022-09-13T18:13:13.454Z,78.78
2022-09-13T18:15:39.848Z,79.37
2022-09-13T18:18:06.159Z,79.58
2022-09-13T18:20:32.428Z,80.30
2022-09-13T18:22:58.732Z,80.23
2022-09-13T18:25:26.214Z,80.31
2022-09-13T18:27:52.522Z,80.84
2022-09-13T18:30:18.844Z,79.75
2022-09-13T18:32:45.148Z,80.34
2022-09-13T18:35:11.512Z,79.36
2022-09-13T18:37:37.788Z,79.60
2022-09-13T18:40:06.366Z,79.53
2022-09-13T18:42:33.462Z,80.33
2022-09-13T18:44:59.828Z,80.01
2022-09-13T18:47:26.145Z,80.01
2022-09-13T18:49:52.446Z,79.68
2022-09-13T18:52:18.731Z,80.43
2022-09-13T18:54:45.049Z,80.52
2022-09-13T18:57:11.379Z,80.84
2022-09-13T18:59:37.765Z,80.37
2022-09-13T19:02:04.212Z,80.89
2022-09-13T19:04:31.868Z,80.94
2022-09-13T19:06:58.218Z,81.39
2022-09-13T19:09:24.856Z,80.84
2022-09-13T19:11:53.271Z,81.42
2022-09-13T19:14:25.325Z,81.87
2022-09-13T19:16:53.710Z,81.52
2022-09-13T19:19:20.436Z,82.19
2022-09-13T19:21:47.067Z,82.48
2022-09-13T19:24:18.283Z,82.80
2022-09-13T19:26:46.428Z,82.82
2022-09-13T19:29:15.760Z,82.73
2022-09-13T19:31:44.233Z,82.48
2022-09-13T19:34:12.061Z,82.63
2022-09-13T19:36:39.485Z,83.07
2022-09-13T19:39:07.261Z,83.37
2022-09-13T19:41:34.211Z,83.86
2022-09-13T19:44:01.913Z,84.49
2022-09-13T19:46:31.388Z,84.33
2022-09-13T19:48:59.346Z,84.73
2022-09-13T19:51:28.171Z,84.72
2022-09-13T19:53:57.289Z,84.48
2022-09-13T19:56:35.755Z,85.00
2022-09-13T19:59:02.825Z,84.36
2022-09-13T20:01:33.350Z,84.43
2022-09-13T20:04:03.036Z,84.74
2022-09-13T20:06:34.681Z,85.07
2022-09-13T20:09:01.376Z,84.68
2022-09-13T20:11:28.889Z,84.64
2022-09-13T20:13:59.414Z,84.99
2022-09-13T20:16:37.159Z,85.62
2022-09-13T20:19:18.339Z,85.39
2022-09-13T20:21:51.229Z,85.20
2022-09-13T20:24:18.595Z,85.48
2022-09-13T20:26:44.871Z,86.37
2022-09-13T20:29:11.917Z,86.48
2022-09-13T20:31:38.243Z,86.66
2022-09-13T20:34:07.220Z,86.97
2022-09-13T20:36:35.747Z,87.10
2022-09-13T20:39:03.833Z,87.61
2022-09-13T20:41:31.435Z,87.85
2022-09-13T20:44:01.307Z,88.44
2022-09-13T20:46:29.212Z,88.66
2022-09-13T20:48:55.652Z,89.00
2022-09-13T20:51:25.138Z,89.29
2022-09-13T20:53:57.307Z,89.20
2022-09-13T20:56:24.494Z,89.32
2022-09-13T20:58:57.492Z,89.73
2022-09-13T21:01:24.713Z,89.96
2022-09-13T21:03:52.945Z,90.61
2022-09-13T21:06:21.231Z,91.35
2022-09-13T21:08:49.917Z,91.63
2022-09-13T21:11:22.043Z,91.99
2022-09-13T21:13:52.191Z,92.81
2022-09-13T21:16:24.060Z,92.77
2022-09-13T21:18:51.386Z,92.93
2022-09-13T21:21:20.265Z,93.21
2022-09-13T21:23:47.614Z,93.46
2022-09-13T21:26:16.593Z,93.78
2022-09-13T21:28:44.171Z,94.14
2022-09-13T21:31:16.084Z,94.61
2022-09-13T21:33:47.135Z,94.66
2022-09-13T21:36:13.883Z,94.58
2022-09-13T21:38:40.558Z,94.50
2022-09-13T21:41:12.642Z,94.78
2022-09-13T21:43:39.658Z,95.15
2022-09-13T21:46:07.093Z,95.27
2022-09-13T21:48:35.228Z,95.25
2022-09-13T21:51:16.017Z,95.59
2022-09-13T21:53:42.727Z,96.15
2022-09-13T21:56:11.653Z,96.48
2022-09-13T21:58:38.958Z,96.51
2022-09-13T22:01:13.318Z,96.84
2022-09-13T22:03:41.738Z,97.29
2022-09-13T22:06:09.479Z,97.50
2022-09-13T22:08:42.517Z,97.58
2022-09-13T22:11:14.556Z,98.20
2022-09-13T22:13:45.392Z,98.31
2022-09-13T22:16:20.997Z,98.49
2022-09-13T22:18:49.812Z,98.82
2022-09-13T22:21:18.385Z,98.82
2022-09-13T22:23:44.805Z,98.98
2022-09-13T22:26:14.057Z,99.27
2022-09-13T22:28:40.574Z,99.32
2022-09-13T22:31:09.644Z,99.76
2022-09-13T22:33:37.018Z,100.00
2022-09-13T22:36:07.060Z,100.00
2022-09-13T22:38:34.719Z,100.00
2022-09-13T22:41:04.072Z,100.00
2022-09-13T22:43:30.381Z,100.00
2022-09-13T22:46:05.951Z,100.00
2022-09-13T22:48:33.518Z,100.00
2022-09-13T22:50:59.852Z,100.00
2022-09-13T22:53:26.819Z,100.00
2022-09-13T22:55:53.759Z,100.00
2022-09-13T22:58:20.112Z,100.00
2022-09-13T23:00:47.030Z,100.00
2022-09-13T23:03:13.984Z,100.00
2022-09-13T23:05:40.373Z,100.00
2022-09-13T23:08:06.678Z,100.00
2022-09-13T23:10:32.998Z,100.00
2022-09-13T23:13:00.382Z,100.00
2022-09-13T23:15:26.648Z,100.00
2022-09-13T23:17:53.083Z,100.00
2022-09-13T23:20:20.104Z,100.00
2022-09-13T23:22:46.678Z,100.00
2022-09-13T23:25:13.087Z,100.00
2022-09-13T23:27:39.528Z,100.00
2022-09-13T23:30:06.249Z,100.00
2022-09-13T23:32:32.926Z,100.00
2022-09-13T23:34:59.211Z,100.00
2022-09-13T23:37:25.539Z,100.00
2022-09-13T23:39:52.229Z,100.00
2022-09-13T23:42:18.697Z,100.00
2022-09-13T23:44:45.010Z,100.00
2022-09-13T23:47:11.264Z,100.00
2022-09-13T23:49:37.522Z,100.00
2022-09-13T23:52:04.137Z,100.00
2022-09-13T23:54:30.430Z,100.00
2022-09-13T23:56:56.753Z,100.00
2022-09-13T23:59:23.035Z,100.00
